Time;durP1;ratioP1;P1;durP2;ratioP2;P2;SDS_P1;SDS_P2;PMS_P1;PMS_P2;Temp;Humidity;BMP_temperature;BMP_pressure;BME280_temperature;BME280_humidity;BME280_pressure;Samples;Min_cycle;Max_cycle;Signal;HPM_P1;HPM_P2
2022/01/18 00:00:42;;;;;;;;;45.75;35.75;;;;;4.59;88.29;102942.03;5056123;28;45190;-63
2022/01/18 00:03:07;;;;;;;;;40.00;35.50;;;;;4.64;88.05;102961.25;5055427;28;45561;-66
2022/01/18 00:05:33;;;;;;;;;39.75;35.50;;;;;4.65;88.76;102963.03;5056155;28;46427;-65
2022/01/18 00:07:59;;;;;;;;;47.50;35.00;;;;;4.66;87.81;102952.59;5057021;28;45301;-67
2022/01/18 00:10:28;;;;;;;;;35.00;31.25;;;;;4.68;88.41;102955.25;5038352;28;45296;-64
2022/01/18 00:16:08;;;;;;;;;42.50;36.50;;;;;4.48;88.21;102924.41;5061305;28;46164;-64
2022/01/18 00:18:30;;;;;;;;;45.75;34.75;;;;;4.65;88.10;102942.16;5062801;28;45276;-62
2022/01/18 00:23:36;;;;;;;;;51.50;41.25;;;;;4.61;88.54;102964.66;5064538;28;45418;-66
2022/01/18 00:26:03;;;;;;;;;59.50;48.25;;;;;4.57;88.15;102943.72;5061421;28;45427;-64
2022/01/18 00:28:30;;;;;;;;;60.25;48.00;;;;;4.56;88.54;102937.59;5060791;28;45290;-63
2022/01/18 00:36:04;;;;;;;;;77.67;58.67;;;;;4.46;89.35;102935.63;5061145;28;45282;-64
2022/01/18 00:38:47;;;;;;;;;85.00;65.00;;;;;4.44;89.07;102930.41;5061843;28;45205;-67
2022/01/18 00:41:14;;;;;;;;;79.33;59.67;;;;;4.40;89.23;102952.03;5061303;28;45424;-67
2022/01/18 00:43:40;;;;;;;;;80.33;62.33;;;;;4.36;89.80;102944.97;5058600;28;45265;-64
2022/01/18 00:46:06;;;;;;;;;79.00;58.67;;;;;4.30;89.62;102930.06;5056519;28;46318;-64
2022/01/18 00:48:34;;;;;;;;;83.67;70.00;;;;;4.29;89.98;102933.50;5058334;28;45261;-65
2022/01/18 00:51:00;;;;;;;;;82.33;67.00;;;;;4.27;89.96;102939.53;5059916;28;45453;-66
2022/01/18 00:53:30;;;;;;;;;82.00;63.67;;;;;4.23;90.32;102934.22;5059338;28;45395;-66
2022/01/18 00:58:29;;;;;;;;;83.00;67.33;;;;;4.17;89.70;102923.66;5060548;28;45233;-66
2022/01/18 01:00:55;;;;;;;;;89.67;72.33;;;;;4.14;90.07;102926.19;5061647;28;45244;-66
2022/01/18 01:03:20;;;;;;;;;88.33;74.33;;;;;4.11;90.08;102933.94;5041399;28;45281;-66
2022/01/18 01:05:45;;;;;;;;;87.67;73.67;;;;;4.07;90.46;102932.09;5058204;28;45513;-65
2022/01/18 01:08:11;;;;;;;;;86.00;70.33;;;;;4.01;90.59;102922.44;5058443;28;45221;-65
2022/01/18 01:10:36;;;;;;;;;90.33;80.00;;;;;3.95;90.44;102927.47;5058348;28;45255;-63
2022/01/18 01:13:02;;;;;;;;;86.00;73.00;;;;;3.92;90.45;102925.66;5058371;28;45209;-65
2022/01/18 01:15:29;;;;;;;;;84.67;66.33;;;;;3.89;90.70;102922.97;5057491;28;46385;-65
2022/01/18 01:18:33;;;;;;;;;93.00;77.67;;;;;3.88;90.49;102935.97;5059403;28;45418;-66
2022/01/18 01:34:38;;;;;;;;;71.25;53.25;;;;;3.50;91.23;102915.91;5057511;28;45297;-66
2022/01/18 01:45:04;;;;;;;;;62.75;49.25;;;;;3.48;91.98;102922.78;5057848;28;45395;-63
2022/01/18 01:47:37;;;;;;;;;64.00;46.75;;;;;3.47;91.50;102929.69;5056979;28;45319;-64
2022/01/18 01:50:08;;;;;;;;;56.50;47.25;;;;;3.43;91.81;102924.38;5056921;28;45419;-67
2022/01/18 01:52:33;;;;;;;;;61.00;43.25;;;;;3.38;92.60;102924.25;5058014;28;45169;-64
2022/01/18 01:54:59;;;;;;;;;63.75;46.75;;;;;3.33;92.45;102921.53;5057504;28;45539;-65
2022/01/18 01:57:25;;;;;;;;;69.25;51.50;;;;;3.36;92.27;102931.13;5056548;28;47335;-65
2022/01/18 01:59:51;;;;;;;;;45.75;40.25;;;;;3.33;92.26;102921.53;5041421;28;45670;-66
2022/01/18 02:02:17;;;;;;;;;62.75;50.25;;;;;3.32;93.36;102929.28;5062623;28;45326;-66
2022/01/18 02:04:43;;;;;;;;;61.25;47.75;;;;;3.27;92.67;102933.47;5048138;28;45712;-65
2022/01/18 02:07:08;;;;;;;;;69.00;48.00;;;;;3.30;92.71;102936.16;5044935;28;47411;-67
2022/01/18 02:09:34;;;;;;;;;55.25;41.50;;;;;3.24;92.71;102949.88;5058369;28;45335;-66
2022/01/18 02:12:00;;;;;;;;;61.00;46.75;;;;;3.19;92.91;102941.06;5057781;28;45328;-65
2022/01/18 02:14:27;;;;;;;;;57.75;40.00;;;;;3.20;92.62;102938.50;5057413;28;45312;-65
2022/01/18 02:22:21;;;;;;;;;46.75;38.00;;;;;3.28;93.70;102937.84;5057108;28;45337;-64
2022/01/18 02:24:47;;;;;;;;;49.00;37.75;;;;;3.32;92.88;102945.78;5058563;28;45544;-64
2022/01/18 02:27:13;;;;;;;;;47.00;35.00;;;;;3.31;92.33;102944.03;5057653;28;45426;-68
2022/01/18 02:29:39;;;;;;;;;37.75;33.25;;;;;3.25;92.69;102933.44;5058434;28;45434;-65
2022/01/18 02:32:05;;;;;;;;;41.75;33.50;;;;;3.34;92.62;102935.41;5058252;28;45415;-64
2022/01/18 02:34:30;;;;;;;;;38.00;28.50;;;;;3.38;92.20;102947.66;5057394;28;45363;-64
2022/01/18 02:36:57;;;;;;;;;40.25;34.00;;;;;3.29;92.12;102916.19;5057276;28;46258;-64
2022/01/18 02:39:27;;;;;;;;;39.25;31.25;;;;;3.33;92.48;102931.03;5056724;28;45411;-66
2022/01/18 02:42:07;;;;;;;;;35.00;30.00;;;;;3.32;92.84;102927.56;5038412;28;45483;-64
2022/01/18 02:44:34;;;;;;;;;37.75;27.25;;;;;3.31;92.86;102919.72;5039674;28;45497;-63
2022/01/18 02:47:01;;;;;;;;;38.75;29.25;;;;;3.43;92.40;102937.38;5054818;28;46318;-65
2022/01/18 02:49:27;;;;;;;;;35.25;28.75;;;;;3.50;91.93;102926.31;5056245;28;45362;-64
2022/01/18 02:51:54;;;;;;;;;37.00;28.75;;;;;3.56;91.87;102925.56;5058296;28;45196;-67
2022/01/18 02:54:20;;;;;;;;;41.00;33.50;;;;;3.57;92.25;102936.03;5056564;28;45783;-64
2022/01/18 02:56:58;;;;;;;;;37.25;27.75;;;;;3.52;92.40;102932.44;5056240;28;46254;-65
2022/01/18 02:59:36;;;;;;;;;39.25;29.00;;;;;3.49;92.18;102906.34;5055734;28;45415;-65
2022/01/18 03:04:59;;;;;;;;;44.00;33.00;;;;;3.54;91.91;102909.94;5056294;28;45228;-63
2022/01/18 03:07:24;;;;;;;;;37.75;26.00;;;;;3.56;92.07;102896.94;5054655;28;46122;-64
2022/01/18 03:09:49;;;;;;;;;44.25;34.25;;;;;3.60;92.27;102904.00;5037830;28;45292;-63
2022/01/18 03:12:15;;;;;;;;;36.50;29.25;;;;;3.61;91.62;102896.25;5055777;28;45282;-66
2022/01/18 03:14:41;;;;;;;;;46.50;33.25;;;;;3.62;91.87;102897.09;5055836;28;45498;-65
2022/01/18 03:17:07;;;;;;;;;44.25;35.25;;;;;3.63;91.48;102891.06;5056061;28;45979;-64
2022/01/18 03:19:32;;;;;;;;;32.75;29.25;;;;;3.56;91.61;102874.41;5055485;28;45521;-65
2022/01/18 03:21:58;;;;;;;;;36.25;32.75;;;;;3.57;92.17;102864.88;5056011;28;45352;-66
2022/01/18 03:29:33;;;;;;;;;34.50;28.75;;;;;3.60;91.51;102886.69;5055757;28;45402;-66
2022/01/18 03:31:59;;;;;;;;;32.75;27.75;;;;;3.54;91.40;102877.81;5056188;28;45304;-65
2022/01/18 03:34:24;;;;;;;;;39.75;31.00;;;;;3.55;91.83;102877.88;5056142;28;45588;-66
2022/01/18 03:36:50;;;;;;;;;39.75;32.50;;;;;3.52;91.72;102880.38;5055733;28;45923;-65
2022/01/18 03:39:15;;;;;;;;;36.50;29.25;;;;;3.58;92.37;102883.16;5059578;28;45436;-65
2022/01/18 03:41:41;;;;;;;;;40.00;30.75;;;;;3.60;91.60;102877.97;5057407;28;45388;-65
2022/01/18 03:44:07;;;;;;;;;31.25;29.25;;;;;3.64;91.41;102885.00;5056017;28;45406;-65
2022/01/18 03:46:36;;;;;;;;;36.75;30.50;;;;;3.70;91.40;102885.16;5057546;28;46960;-66
2022/01/18 03:49:04;;;;;;;;;40.50;29.00;;;;;3.73;91.11;102879.19;5043584;28;45809;-64
2022/01/18 03:51:29;;;;;;;;;41.00;31.75;;;;;3.71;91.14;102889.56;5062680;28;45403;-65
2022/01/18 03:53:54;;;;;;;;;35.25;27.25;;;;;3.69;91.07;102883.41;5061279;28;45363;-65
2022/01/18 03:56:20;;;;;;;;;36.25;31.25;;;;;3.68;91.28;102879.03;5060548;28;45976;-65
2022/01/18 03:58:45;;;;;;;;;37.50;26.00;;;;;3.67;91.05;102885.09;5042052;28;45363;-64
2022/01/18 04:01:11;;;;;;;;;32.75;29.25;;;;;3.69;91.14;102883.41;5060449;28;45476;-64
2022/01/18 04:03:36;;;;;;;;;46.25;33.00;;;;;3.72;91.59;102886.13;5060324;28;45475;-67
2022/01/18 04:06:01;;;;;;;;;40.00;33.00;;;;;3.67;91.46;102881.63;5059622;28;45470;-66
2022/01/18 04:08:27;;;;;;;;;41.50;31.50;;;;;3.69;91.43;102879.94;5060099;28;45473;-67
2022/01/18 04:10:53;;;;;;;;;39.50;29.00;;;;;3.68;91.76;102878.19;5060452;28;45602;-66
2022/01/18 04:13:18;;;;;;;;;41.25;32.75;;;;;3.65;91.13;102878.97;5061501;28;45472;-66
2022/01/18 04:15:43;;;;;;;;;31.00;25.00;;;;;3.59;90.94;102871.00;5062581;28;46064;-65
2022/01/18 04:28:47;;;;;;;;;38.50;26.25;;;;;3.54;92.07;102881.31;5060318;28;45432;-64
2022/01/18 04:31:12;;;;;;;;;38.25;27.75;;;;;3.49;92.20;102875.09;5058190;28;45209;-64
2022/01/18 04:33:38;;;;;;;;;45.75;34.50;;;;;3.53;92.35;102869.13;5058284;28;45419;-62
2022/01/18 04:36:06;;;;;;;;;38.50;29.00;;;;;3.55;91.99;102875.25;5057888;28;46217;-62
2022/01/18 04:38:32;;;;;;;;;47.25;34.50;;;;;3.55;92.95;102883.06;5058011;28;45280;-63
2022/01/18 04:41:07;;;;;;;;;40.00;31.00;;;;;3.51;92.59;102876.88;5058129;28;45514;-64
2022/01/18 04:48:58;;;;;;;;;32.75;28.50;;;;;3.61;92.53;102874.53;5057884;28;45415;-61
2022/01/18 04:51:24;;;;;;;;;42.25;31.75;;;;;3.59;92.20;102863.19;5058891;28;45339;-65
2022/01/18 04:53:54;;;;;;;;;38.50;26.50;;;;;3.60;92.37;102859.75;5059342;28;45271;-68
2022/01/18 04:58:59;;;;;;;;;41.50;33.25;;;;;3.51;92.90;102855.22;5046171;28;45260;-67
2022/01/18 05:01:25;;;;;;;;;39.00;30.75;;;;;3.53;91.92;102856.13;5060060;28;45300;-65
2022/01/18 05:03:50;;;;;;;;;37.50;31.00;;;;;3.60;92.90;102868.47;5059283;28;45348;-67
2022/01/18 05:06:17;;;;;;;;;40.50;33.00;;;;;3.59;92.25;102877.09;5058748;28;46374;-64
2022/01/18 05:08:43;;;;;;;;;39.75;33.50;;;;;3.62;92.91;102865.88;5058608;28;45325;-65
2022/01/18 05:11:14;;;;;;;;;43.50;33.25;;;;;3.52;92.99;102854.38;5058450;28;45343;-66
2022/01/18 05:19:05;;;;;;;;;39.25;31.25;;;;;3.53;92.75;102866.53;5058217;28;45308;-66
2022/01/18 05:22:55;;;;;;;;;47.75;32.50;;;;;3.49;93.45;102869.91;5057624;28;45279;-63
2022/01/18 05:24:18;;;;;;;;;50.75;33.75;;;;;3.46;92.77;102865.47;5058031;28;45147;-64
2022/01/18 05:26:44;;;;;;;;;37.50;32.50;;;;;3.44;93.36;102863.69;5058063;28;46342;-66
2022/01/18 05:29:09;;;;;;;;;36.25;29.25;;;;;3.39;92.45;102857.50;5057931;28;45399;-64
2022/01/18 05:31:34;;;;;;;;;38.00;27.00;;;;;3.33;93.57;102853.88;5060560;28;45386;-64
2022/01/18 05:34:00;;;;;;;;;32.50;25.00;;;;;3.24;92.57;102861.44;5058235;28;45416;-63
2022/01/18 05:36:27;;;;;;;;;33.00;25.00;;;;;3.14;93.51;102859.41;5058536;28;46075;-65
2022/01/18 05:38:53;;;;;;;;;38.00;28.50;;;;;3.09;93.32;102855.78;5039852;28;45527;-64
2022/01/18 05:41:18;;;;;;;;;23.75;18.75;;;;;3.00;93.10;102851.25;5057869;28;45453;-66
2022/01/18 05:43:44;;;;;;;;;30.00;25.25;;;;;2.94;93.97;102858.88;5058332;28;45288;-65
2022/01/18 05:46:09;;;;;;;;;35.75;27.00;;;;;2.87;93.97;102847.41;5039622;28;47013;-65
2022/01/18 05:48:35;;;;;;;;;32.00;23.75;;;;;2.76;93.85;102832.38;5058154;28;45282;-66
2022/01/18 05:51:00;;;;;;;;;30.75;24.00;;;;;2.81;93.61;102855.03;5058207;28;45384;-65
2022/01/18 05:53:27;;;;;;;;;29.25;26.25;;;;;2.81;93.95;102853.31;5058770;28;45332;-65
2022/01/18 05:55:52;;;;;;;;;26.75;19.75;;;;;2.83;94.75;102855.94;5058351;28;46191;-67
2022/01/18 05:58:18;;;;;;;;;31.50;25.50;;;;;2.84;94.21;102852.50;5060168;28;45180;-65
2022/01/18 06:00:43;;;;;;;;;29.00;24.75;;;;;2.88;94.81;102851.75;5059067;28;45261;-68
2022/01/18 06:03:14;;;;;;;;;35.75;22.75;;;;;2.81;93.54;102847.22;5062637;28;45194;-65
2022/01/18 06:08:24;;;;;;;;;34.75;27.25;;;;;2.69;94.29;102850.38;5057492;28;45426;-63
2022/01/18 06:10:49;;;;;;;;;34.50;27.00;;;;;2.64;94.14;102852.81;5056410;28;45390;-64
2022/01/18 06:13:15;;;;;;;;;34.00;30.00;;;;;2.60;95.09;102858.75;5057245;28;45541;-65
2022/01/18 06:15:41;;;;;;;;;29.00;25.00;;;;;2.59;95.06;102857.00;5056939;28;45942;-65
2022/01/18 06:18:06;;;;;;;;;37.50;27.25;;;;;2.64;95.66;102860.63;5056874;28;45324;-64
2022/01/18 06:20:33;;;;;;;;;30.75;22.25;;;;;2.58;94.90;102845.72;5055779;28;45874;-64
2022/01/18 06:22:59;;;;;;;;;40.00;31.25;;;;;2.46;94.58;102835.84;5039765;28;45610;-65
2022/01/18 06:25:24;;;;;;;;;33.75;29.00;;;;;2.55;94.34;102863.81;5057338;28;46183;-65
2022/01/18 06:27:51;;;;;;;;;41.25;29.75;;;;;2.53;94.70;102869.81;5057743;28;45469;-65
2022/01/18 06:30:16;;;;;;;;;41.25;33.00;;;;;2.50;95.42;102869.72;5057113;28;45530;-65
2022/01/18 06:32:45;;;;;;;;;33.50;26.50;;;;;2.54;95.12;102871.56;5057524;28;45415;-68
2022/01/18 06:35:12;;;;;;;;;37.25;34.25;;;;;2.52;95.23;102868.03;5056859;28;46567;-66
2022/01/18 06:37:38;;;;;;;;;38.75;31.50;;;;;2.44;95.07;102873.88;5057064;28;45229;-65
2022/01/18 06:40:05;;;;;;;;;45.75;32.00;;;;;2.38;95.14;102857.22;5058141;28;45209;-66
2022/01/18 06:42:32;;;;;;;;;36.75;31.25;;;;;2.37;96.13;102866.75;5056925;28;45340;-62
2022/01/18 06:44:57;;;;;;;;;44.25;31.50;;;;;2.36;95.40;102867.59;5038769;28;45328;-65
2022/01/18 06:47:23;;;;;;;;;36.00;30.00;;;;;2.31;96.64;102867.41;5056715;28;45405;-64
2022/01/18 06:49:48;;;;;;;;;49.50;34.00;;;;;2.26;96.06;102875.91;5063820;28;45381;-65
2022/01/18 06:52:14;;;;;;;;;43.50;31.50;;;;;2.18;96.76;102870.47;5040333;28;45404;-65
2022/01/18 06:54:40;;;;;;;;;39.75;35.25;;;;;2.12;97.52;102865.09;5056613;28;46196;-64
2022/01/18 06:57:05;;;;;;;;;45.00;32.00;;;;;2.08;97.47;102874.47;5057437;28;45383;-65
2022/01/18 06:59:31;;;;;;;;;38.75;30.25;;;;;2.06;97.98;102873.53;5057446;28;45405;-65
2022/01/18 07:01:56;;;;;;;;;35.75;31.75;;;;;2.00;98.14;102871.66;5056874;28;45394;-63
2022/01/18 07:04:22;;;;;;;;;45.75;36.25;;;;;2.03;98.42;102878.63;5056900;28;45391;-66
2022/01/18 07:06:47;;;;;;;;;39.50;30.75;;;;;2.03;97.99;102868.25;5057323;28;45281;-66
2022/01/18 07:09:15;;;;;;;;;38.50;33.50;;;;;1.96;98.72;102866.28;5057257;28;45300;-64
2022/01/18 07:11:41;;;;;;;;;40.25;35.50;;;;;2.01;98.43;102873.41;5058847;28;45265;-63
2022/01/18 07:14:06;;;;;;;;;27.75;22.75;;;;;2.02;99.33;102872.59;5057684;28;47339;-65
2022/01/18 07:16:32;;;;;;;;;47.25;31.25;;;;;2.00;99.41;102866.47;5059396;28;45248;-65
2022/01/18 07:18:57;;;;;;;;;46.25;37.25;;;;;2.03;99.51;102860.47;5060452;28;45441;-64
2022/01/18 07:21:22;;;;;;;;;38.50;28.00;;;;;2.03;99.82;102866.56;5060159;28;45513;-66
2022/01/18 07:23:50;;;;;;;;;36.50;24.75;;;;;2.07;99.56;102856.28;5061620;28;45401;-65
2022/01/18 07:26:15;;;;;;;;;38.75;28.75;;;;;2.10;99.09;102857.22;5060077;28;45451;-65
2022/01/18 07:28:41;;;;;;;;;33.75;32.00;;;;;2.17;99.23;102859.22;5058950;28;45788;-64
2022/01/18 07:31:08;;;;;;;;;34.25;30.50;;;;;2.22;99.44;102859.34;5060019;28;45490;-65
2022/01/18 07:33:36;;;;;;;;;35.00;30.25;;;;;2.29;98.78;102863.91;5059947;28;45229;-64
2022/01/18 07:36:02;;;;;;;;;43.75;33.75;;;;;2.34;98.96;102856.25;5061164;28;45308;-65
2022/01/18 07:38:27;;;;;;;;;50.00;36.50;;;;;2.41;98.83;102860.81;5064722;28;45563;-65
2022/01/18 07:40:53;;;;;;;;;40.25;29.25;;;;;2.46;99.17;102856.63;5060734;28;45504;-64
2022/01/18 07:43:19;;;;;;;;;40.50;29.00;;;;;2.51;98.69;102854.16;5060502;28;46077;-63
2022/01/18 07:45:46;;;;;;;;;38.00;30.25;;;;;2.55;98.16;102849.94;5060857;28;45356;-63
2022/01/18 07:48:13;;;;;;;;;38.00;30.50;;;;;2.58;98.82;102857.84;5041144;28;45487;-63
2022/01/18 07:50:39;;;;;;;;;50.75;37.50;;;;;2.57;98.03;102850.88;5058772;28;45431;-60
2022/01/18 07:53:05;;;;;;;;;41.75;35.25;;;;;2.65;98.96;102856.28;5059308;28;45431;-62
2022/01/18 07:55:30;;;;;;;;;31.75;29.25;;;;;2.67;98.68;102849.44;5060452;28;45248;-63
2022/01/18 07:57:58;;;;;;;;;43.00;34.50;;;;;2.80;98.59;102859.34;5060546;28;45244;-64
2022/01/18 08:00:23;;;;;;;;;45.50;32.25;;;;;2.82;98.24;102846.38;5060378;28;45522;-64
2022/01/18 08:02:49;;;;;;;;;44.00;32.50;;;;;2.94;97.56;102853.66;5058673;28;46039;-63
2022/01/18 08:05:14;;;;;;;;;39.50;31.25;;;;;3.03;98.00;102846.13;5059690;28;45558;-64
2022/01/18 08:07:41;;;;;;;;;29.50;26.00;;;;;3.13;96.87;102839.44;5060144;28;45300;-62
2022/01/18 08:10:08;;;;;;;;;50.00;35.00;;;;;3.20;97.34;102839.66;5059925;28;45370;-65
2022/01/18 08:12:33;;;;;;;;;31.50;29.50;;;;;3.34;96.82;102841.75;5059290;28;46270;-64
2022/01/18 08:15:12;;;;;;;;;35.50;31.00;;;;;3.43;96.36;102835.91;5040523;28;45320;-62
2022/01/18 08:17:37;;;;;;;;;42.75;29.25;;;;;3.60;96.76;102839.81;5058788;28;45269;-63
2022/01/18 08:20:03;;;;;;;;;25.50;23.50;;;;;3.77;96.08;102831.56;5045882;28;45533;-62
2022/01/18 08:22:29;;;;;;;;;32.75;26.00;;;;;3.91;95.22;102837.97;5061064;28;45327;-63
2022/01/18 08:24:54;;;;;;;;;28.50;23.50;;;;;4.01;94.41;102827.78;5061921;28;45359;-64
2022/01/18 08:27:21;;;;;;;;;27.50;23.00;;;;;4.19;94.32;102845.56;5061874;28;45447;-64
2022/01/18 08:29:47;;;;;;;;;27.25;23.50;;;;;4.33;93.06;102844.16;5062078;28;45297;-62
2022/01/18 08:32:12;;;;;;;;;28.25;24.00;;;;;4.42;92.24;102843.47;5061554;28;45475;-63
2022/01/18 08:34:37;;;;;;;;;30.00;24.00;;;;;4.52;92.11;102848.06;5057200;28;45327;-63
2022/01/18 08:37:03;;;;;;;;;38.50;31.25;;;;;4.57;91.33;102849.88;5059638;28;45228;-63
2022/01/18 08:39:28;;;;;;;;;37.50;32.00;;;;;4.56;91.10;102838.56;5059598;28;45249;-62
2022/01/18 08:41:54;;;;;;;;;38.50;32.00;;;;;4.51;90.61;102835.88;5058147;28;45380;-70
2022/01/18 08:44:19;;;;;;;;;47.25;36.00;;;;;4.48;90.99;102846.22;5058103;28;45318;-63
2022/01/18 08:46:45;;;;;;;;;36.50;29.00;;;;;4.45;90.95;102838.34;5058889;28;45371;-63
2022/01/18 08:49:10;;;;;;;;;30.25;29.25;;;;;4.43;90.60;102845.25;5059072;28;45319;-63
2022/01/18 08:51:37;;;;;;;;;37.25;34.50;;;;;4.40;91.68;102837.34;5059638;28;45982;-62
2022/01/18 08:54:04;;;;;;;;;52.25;37.25;;;;;4.44;91.25;102839.19;5061473;28;45248;-63
2022/01/18 08:56:29;;;;;;;;;40.25;33.75;;;;;4.47;91.33;102847.06;5060253;28;45377;-64
2022/01/18 08:58:55;;;;;;;;;38.50;34.75;;;;;4.53;91.12;102843.69;5059764;28;45339;-63
2022/01/18 09:01:21;;;;;;;;;45.75;34.50;;;;;4.60;91.37;102844.72;5059059;28;46129;-63
2022/01/18 09:03:46;;;;;;;;;35.75;30.75;;;;;4.64;91.13;102841.34;5060541;28;45309;-63
2022/01/18 09:06:13;;;;;;;;;43.00;34.50;;;;;4.71;91.04;102850.16;5060056;28;45399;-63
2022/01/18 09:08:41;;;;;;;;;41.50;34.25;;;;;4.79;91.28;102849.47;5060653;28;45462;-64
2022/01/18 09:11:07;;;;;;;;;40.25;33.50;;;;;4.80;91.31;102843.41;5041484;28;48221;-63
2022/01/18 09:13:35;;;;;;;;;44.25;35.75;;;;;4.76;90.94;102844.19;5059006;28;45293;-67
2022/01/18 09:16:02;;;;;;;;;47.25;34.50;;;;;4.71;91.20;102848.44;5058422;28;45327;-63
2022/01/18 09:18:28;;;;;;;;;48.75;36.00;;;;;4.70;91.26;102843.16;5059409;28;45198;-63
2022/01/18 09:20:53;;;;;;;;;58.00;43.25;;;;;4.70;91.81;102841.47;5057981;28;45868;-65
2022/01/18 09:23:19;;;;;;;;;42.50;36.50;;;;;4.70;91.76;102840.56;5058436;28;45282;-64
2022/01/18 09:25:44;;;;;;;;;42.25;30.50;;;;;4.65;92.08;102838.75;5059391;28;45257;-62
2022/01/18 09:28:10;;;;;;;;;51.00;39.25;;;;;4.66;92.50;102844.84;5041019;28;45714;-62
2022/01/18 09:30:37;;;;;;;;;56.25;40.75;;;;;4.64;92.42;102836.13;5057847;28;46378;-63
2022/01/18 09:33:06;;;;;;;;;46.25;37.25;;;;;4.69;92.55;102847.53;5059727;28;45221;-62
2022/01/18 09:35:32;;;;;;;;;47.75;36.50;;;;;4.73;92.65;102843.22;5059343;28;45461;-64
2022/01/18 09:37:57;;;;;;;;;50.50;36.25;;;;;4.74;92.66;102838.06;5059421;28;45426;-62
2022/01/18 09:40:23;;;;;;;;;45.25;37.00;;;;;4.74;92.75;102840.69;5042294;28;48437;-63
2022/01/18 09:42:54;;;;;;;;;45.00;34.75;;;;;4.77;92.84;102845.94;5059349;28;45336;-63
2022/01/18 09:45:21;;;;;;;;;32.00;31.25;;;;;4.79;92.81;102841.66;5041396;28;45444;-63
2022/01/18 09:47:49;;;;;;;;;41.50;34.00;;;;;4.79;92.98;102839.03;5058808;28;45486;-64
2022/01/18 09:50:18;;;;;;;;;48.50;33.75;;;;;4.88;93.21;102843.56;5039968;28;47861;-62
2022/01/18 09:52:47;;;;;;;;;49.50;37.50;;;;;4.88;93.16;102842.69;5059910;28;45497;-62
2022/01/18 09:55:13;;;;;;;;;49.50;35.25;;;;;4.94;93.26;102845.41;5057917;28;45434;-61
2022/01/18 09:57:38;;;;;;;;;51.00;37.00;;;;;4.99;92.80;102851.59;5058426;28;45579;-63
2022/01/18 10:00:06;;;;;;;;;51.50;38.75;;;;;5.03;92.28;102840.38;5058991;28;46260;-61
2022/01/18 10:02:31;;;;;;;;;49.50;36.50;;;;;5.09;92.65;102837.88;5059101;28;45726;-62
2022/01/18 10:04:59;;;;;;;;;46.75;35.75;;;;;5.16;92.71;102844.09;5039609;28;45419;-65
2022/01/18 10:07:32;;;;;;;;;48.00;38.25;;;;;5.21;93.05;102838.97;5057939;28;45365;-61
2022/01/18 10:10:05;;;;;;;;;49.00;35.25;;;;;5.25;92.46;102841.66;5060911;28;45607;-61
2022/01/18 10:12:31;;;;;;;;;49.50;35.25;;;;;5.23;92.57;102821.59;5059551;28;45224;-61
2022/01/18 10:15:02;;;;;;;;;41.75;33.75;;;;;5.37;92.15;102837.53;5058627;28;45325;-66
2022/01/18 10:17:30;;;;;;;;;42.75;35.25;;;;;5.39;91.62;102836.72;5057533;28;45293;-61
2022/01/18 10:20:05;;;;;;;;;47.75;36.25;;;;;5.41;92.20;102823.66;5056456;28;45444;-62
2022/01/18 10:22:40;;;;;;;;;52.00;37.00;;;;;5.46;92.64;102826.38;5039165;28;45333;-62
2022/01/18 10:25:19;;;;;;;;;38.25;33.25;;;;;5.51;92.04;102830.81;5057919;28;45431;-63
2022/01/18 10:27:51;;;;;;;;;51.25;38.50;;;;;5.58;92.17;102828.31;5057326;28;45312;-62
2022/01/18 10:30:31;;;;;;;;;55.50;38.75;;;;;5.62;92.32;102824.88;5056084;28;46339;-61
2022/01/18 10:33:10;;;;;;;;;40.00;32.00;;;;;5.68;92.47;102824.97;5056616;28;45440;-63
2022/01/18 10:35:35;;;;;;;;;47.50;37.25;;;;;5.76;91.83;102817.28;5057417;28;45510;-61
2022/01/18 10:38:00;;;;;;;;;48.50;37.75;;;;;5.82;91.21;102823.47;5058154;28;45211;-64
2022/01/18 10:40:26;;;;;;;;;49.75;36.50;;;;;5.82;91.43;102801.72;5056897;28;46451;-64
2022/01/18 10:42:53;;;;;;;;;54.25;41.25;;;;;5.94;90.85;102808.88;5057715;28;45208;-64
2022/01/18 10:45:30;;;;;;;;;50.75;41.75;;;;;5.97;91.25;102795.84;5059186;28;45295;-63
2022/01/18 10:48:10;;;;;;;;;56.00;44.50;;;;;6.06;90.64;102800.34;5057112;28;45411;-61
2022/01/18 10:50:38;;;;;;;;;51.50;37.75;;;;;6.09;91.07;102787.31;5056752;28;45260;-61
2022/01/18 10:53:21;;;;;;;;;52.00;39.50;;;;;6.14;90.16;102783.94;5057570;28;45296;-62
2022/01/18 10:55:49;;;;;;;;;47.50;35.25;;;;;6.19;90.62;102778.75;5038142;28;45217;-62
2022/01/18 10:58:18;;;;;;;;;41.50;34.00;;;;;6.26;89.75;102775.38;5056731;28;45520;-61
2022/01/18 11:00:43;;;;;;;;;42.50;36.25;;;;;6.32;90.09;102771.06;5057315;28;45233;-61
2022/01/18 11:03:10;;;;;;;;;45.75;34.50;;;;;6.37;89.93;102761.59;5056702;28;45286;-63
2022/01/18 11:05:38;;;;;;;;;46.75;38.75;;;;;6.43;89.44;102753.81;5057062;28;45233;-65
2022/01/18 11:08:06;;;;;;;;;49.75;35.75;;;;;6.53;89.18;102744.31;5057096;28;45446;-62
2022/01/18 11:10:37;;;;;;;;;43.50;34.75;;;;;6.57;88.70;102736.56;5056888;28;46283;-63
2022/01/18 11:13:11;;;;;;;;;39.00;31.50;;;;;6.69;88.33;102738.41;5055641;28;45352;-63
2022/01/18 11:15:43;;;;;;;;;41.75;36.25;;;;;6.78;88.23;102740.25;5056699;28;45354;-68
2022/01/18 11:18:45;;;;;;;;;40.00;33.00;;;;;6.84;87.67;102729.84;5056716;28;45267;-62
2022/01/18 11:21:06;;;;;;;;;39.00;29.50;;;;;6.97;86.91;102722.13;5055044;28;45928;-66
2022/01/18 11:23:34;;;;;;;;;47.25;35.75;;;;;7.05;87.98;102717.84;5038500;28;45253;-65
2022/01/18 11:26:00;;;;;;;;;50.50;36.00;;;;;7.13;86.66;102720.53;5056237;28;45360;-62
2022/01/18 11:28:26;;;;;;;;;40.50;30.00;;;;;7.17;84.21;102706.59;5056407;28;45641;-62
2022/01/18 11:30:51;;;;;;;;;43.00;32.50;;;;;7.25;85.02;102707.53;5037689;28;47162;-62
2022/01/18 11:33:20;;;;;;;;;41.50;35.00;;;;;7.35;84.94;102716.31;5057170;28;45377;-61
2022/01/18 11:36:08;;;;;;;;;42.50;34.00;;;;;7.44;83.89;102705.06;5037384;28;45391;-61
2022/01/18 11:38:52;;;;;;;;;44.00;34.25;;;;;7.43;83.70;102683.25;5037606;28;45499;-62
2022/01/18 11:41:26;;;;;;;;;35.25;28.25;;;;;7.59;83.15;102681.59;5055082;28;45683;-61
2022/01/18 11:43:52;;;;;;;;;42.75;32.75;;;;;7.69;82.33;102679.91;5054234;28;45274;-63
2022/01/18 11:46:36;;;;;;;;;24.50;22.50;;;;;7.78;83.24;102667.72;5058069;28;45321;-64
2022/01/18 11:49:22;;;;;;;;;26.50;19.25;;;;;7.94;81.62;102671.28;5058949;28;45229;-63
2022/01/18 11:51:49;;;;;;;;;42.25;33.00;;;;;8.00;78.84;102669.56;5055966;28;46322;-63
2022/01/18 11:54:57;;;;;;;;;63.00;50.25;;;;;8.08;79.47;102666.09;5055463;28;45347;-64
2022/01/18 11:57:22;;;;;;;;;22.25;18.25;;;;;8.15;78.47;102666.16;5055667;28;45795;-65
2022/01/18 11:59:53;;;;;;;;;23.50;18.50;;;;;8.18;77.17;102658.28;5057499;28;45515;-62
2022/01/18 12:02:41;;;;;;;;;19.00;17.25;;;;;8.21;76.99;102654.78;5057299;28;46336;-64
2022/01/18 12:05:14;;;;;;;;;22.75;19.00;;;;;8.26;77.31;102647.81;5055188;28;45324;-63
2022/01/18 12:07:41;;;;;;;;;20.75;19.25;;;;;8.29;77.21;102650.44;5038168;28;45398;-63
2022/01/18 12:10:27;;;;;;;;;48.25;40.00;;;;;8.37;77.18;102647.84;5062364;28;45399;-64
2022/01/18 12:12:55;;;;;;;;;19.50;17.00;;;;;8.46;75.22;102631.25;5061533;28;46159;-65
2022/01/18 12:15:23;;;;;;;;;15.25;13.75;;;;;8.62;76.46;102634.81;5040535;28;45603;-64
2022/01/18 12:17:56;;;;;;;;;21.50;16.00;;;;;8.81;75.87;102637.44;5059115;28;45367;-62
2022/01/18 12:20:34;;;;;;;;;19.50;15.25;;;;;8.93;74.78;102639.19;5059997;28;45372;-63
2022/01/18 12:23:10;;;;;;;;;21.50;21.00;;;;;8.92;73.70;102627.81;5058499;28;47327;-64
2022/01/18 12:25:54;;;;;;;;;19.50;16.25;;;;;8.95;73.51;102626.94;5040554;28;45621;-64
2022/01/18 12:28:36;;;;;;;;;25.00;20.75;;;;;9.00;73.34;102618.19;5058820;28;45430;-63
2022/01/18 12:31:23;;;;;;;;;15.25;13.25;;;;;9.00;72.88;102615.56;5059888;28;45364;-64
2022/01/18 12:33:51;;;;;;;;;27.00;20.75;;;;;8.90;73.33;102612.09;5059088;28;47900;-64
2022/01/18 12:36:31;;;;;;;;;22.00;19.00;;;;;8.88;73.02;102607.69;5058702;28;45337;-63